createdAt,value
2019-03-10T00:00:29.056Z,11.20
2019-03-10T00:03:00.245Z,9.73
2019-03-10T00:05:29.443Z,13.67
2019-03-10T00:07:59.558Z,13.97
2019-03-10T00:10:28.761Z,14.57
2019-03-10T00:12:58.000Z,11.33
2019-03-10T00:15:27.316Z,11.03
2019-03-10T00:17:56.531Z,12.10
2019-03-10T00:20:25.769Z,13.30
2019-03-10T00:22:55.013Z,9.90
2019-03-10T00:25:24.216Z,13.60
2019-03-10T00:27:53.441Z,10.17
2019-03-10T00:30:22.807Z,8.43
2019-03-10T00:32:52.016Z,15.40
2019-03-10T00:35:21.250Z,12.97
2019-03-10T00:37:51.553Z,10.93
2019-03-10T00:40:38.588Z,13.30
2019-03-10T00:43:45.999Z,12.77
2019-03-10T00:46:51.844Z,11.03
2019-03-10T00:49:57.589Z,14.07
2019-03-10T00:52:35.530Z,9.30
2019-03-10T00:55:05.178Z,11.87
2019-03-10T00:57:34.421Z,13.80
2019-03-10T01:00:15.156Z,12.47
2019-03-10T01:02:44.433Z,8.50
2019-03-10T01:05:13.735Z,12.80
2019-03-10T01:07:43.113Z,14.27
2019-03-10T01:10:12.342Z,7.00
2019-03-10T01:12:41.727Z,16.10
2019-03-10T01:15:12.912Z,13.47
2019-03-10T01:17:42.388Z,11.33
2019-03-10T01:20:12.548Z,12.90
2019-03-10T01:22:41.759Z,16.93
2019-03-10T01:25:12.643Z,13.57
2019-03-10T01:27:41.844Z,16.10
2019-03-10T01:30:14.020Z,12.50
2019-03-10T01:33:02.764Z,13.80
2019-03-10T01:35:32.712Z,15.27
2019-03-10T01:38:01.934Z,10.77
2019-03-10T01:40:31.098Z,16.90
2019-03-10T01:43:00.292Z,13.93
2019-03-10T01:45:29.477Z,15.37
2019-03-10T01:47:59.386Z,10.40
2019-03-10T01:50:28.710Z,17.70
2019-03-10T01:52:57.878Z,11.40
2019-03-10T01:55:27.058Z,10.83
2019-03-10T01:57:56.228Z,14.10
2019-03-10T02:00:25.416Z,15.07
2019-03-10T02:02:54.589Z,14.97
2019-03-10T02:05:23.779Z,13.13
2019-03-10T02:07:52.969Z,11.90
2019-03-10T02:10:22.167Z,11.43
2019-03-10T02:12:51.645Z,10.67
2019-03-10T02:15:20.836Z,13.80
2019-03-10T02:17:50.009Z,13.27
2019-03-10T02:20:19.206Z,10.87
2019-03-10T02:22:48.372Z,13.50
2019-03-10T02:25:17.568Z,12.20
2019-03-10T02:27:46.743Z,10.50
2019-03-10T02:30:17.569Z,12.50
2019-03-10T02:32:46.799Z,11.00
2019-03-10T02:35:17.066Z,12.10
2019-03-10T02:37:46.257Z,10.30
2019-03-10T02:40:15.497Z,13.63
2019-03-10T02:42:44.752Z,10.97
2019-03-10T02:45:14.099Z,12.33
2019-03-10T02:47:43.290Z,9.33
2019-03-10T02:50:12.630Z,14.70
2019-03-10T02:52:41.818Z,11.43
2019-03-10T02:55:11.166Z,15.50
2019-03-10T02:57:40.620Z,12.50
2019-03-10T03:00:12.497Z,16.77
2019-03-10T03:02:41.763Z,11.40
2019-03-10T03:05:12.063Z,8.63
2019-03-10T03:07:41.435Z,12.33
2019-03-10T03:10:12.785Z,10.10
2019-03-10T03:12:42.046Z,8.60
2019-03-10T03:15:11.574Z,13.30
2019-03-10T03:17:40.743Z,9.70
2019-03-10T03:20:12.064Z,11.80
2019-03-10T03:22:41.246Z,10.87
2019-03-10T03:25:11.474Z,8.77
2019-03-10T03:27:41.612Z,11.10
2019-03-10T03:30:13.853Z,15.53
2019-03-10T03:32:43.030Z,8.87
2019-03-10T03:35:38.061Z,11.80
2019-03-10T03:38:07.250Z,9.90
2019-03-10T03:40:40.761Z,16.23
2019-03-10T03:43:11.014Z,11.70
2019-03-10T03:45:40.186Z,16.53
2019-03-10T03:48:09.379Z,12.33
2019-03-10T03:50:38.569Z,12.80
2019-03-10T03:53:08.066Z,17.57
2019-03-10T03:55:37.242Z,17.27
2019-03-10T03:58:06.414Z,14.57
2019-03-10T04:00:35.600Z,14.37
2019-03-10T04:03:04.826Z,11.47
2019-03-10T04:05:34.040Z,13.13
2019-03-10T04:08:03.259Z,14.43
2019-03-10T04:10:32.433Z,11.53
2019-03-10T04:13:01.625Z,14.63
2019-03-10T04:15:30.797Z,13.00
2019-03-10T04:18:00.958Z,15.37
2019-03-10T04:20:30.131Z,11.13
2019-03-10T04:22:59.321Z,21.17
2019-03-10T04:25:28.562Z,12.10
2019-03-10T04:27:57.748Z,17.43
2019-03-10T04:30:26.947Z,13.83
2019-03-10T04:32:56.119Z,13.10
2019-03-10T04:35:25.311Z,16.93
2019-03-10T04:37:54.476Z,11.23
2019-03-10T04:40:23.664Z,12.23
2019-03-10T04:42:52.857Z,16.37
2019-03-10T04:45:22.029Z,15.63
2019-03-10T04:47:51.217Z,16.03
2019-03-10T04:50:20.404Z,17.97
2019-03-10T04:52:49.869Z,14.17
2019-03-10T04:55:38.741Z,15.20
2019-03-10T04:58:12.513Z,18.73
2019-03-10T05:00:43.319Z,15.47
2019-03-10T05:03:12.777Z,12.03
2019-03-10T05:05:41.948Z,18.30
2019-03-10T05:08:11.140Z,16.00
2019-03-10T05:10:40.312Z,14.57
2019-03-10T05:13:09.501Z,18.97
2019-03-10T05:15:38.675Z,16.83
2019-03-10T05:18:07.836Z,14.53
2019-03-10T05:20:37.022Z,15.17
2019-03-10T05:23:31.851Z,14.83
2019-03-10T05:26:01.109Z,23.10
2019-03-10T05:28:32.212Z,17.60
2019-03-10T05:31:01.574Z,21.70
2019-03-10T05:33:30.732Z,23.80
2019-03-10T05:35:59.925Z,19.87
2019-03-10T05:38:29.136Z,19.63
2019-03-10T05:40:58.352Z,23.00
2019-03-10T05:43:27.518Z,22.30
2019-03-10T05:45:56.695Z,17.63
2019-03-10T05:48:25.865Z,19.80
2019-03-10T05:50:55.035Z,16.77
2019-03-10T05:53:24.220Z,18.57
2019-03-10T05:55:53.407Z,22.53
2019-03-10T05:58:22.669Z,18.03
2019-03-10T06:00:52.812Z,14.90
2019-03-10T06:03:21.985Z,16.07
2019-03-10T06:05:51.158Z,16.53
2019-03-10T06:08:20.331Z,17.40
2019-03-10T06:10:49.513Z,15.00
2019-03-10T06:13:18.695Z,19.43
2019-03-10T06:15:48.126Z,16.60
2019-03-10T06:18:17.311Z,15.30
2019-03-10T06:20:46.726Z,14.83
2019-03-10T06:23:15.908Z,13.67
2019-03-10T06:25:45.080Z,18.60
2019-03-10T06:28:14.248Z,14.33
2019-03-10T06:30:43.732Z,16.60
2019-03-10T06:33:13.240Z,18.80
2019-03-10T06:35:42.416Z,14.27
2019-03-10T06:38:11.609Z,14.07
2019-03-10T06:40:40.819Z,13.47
2019-03-10T06:43:09.968Z,8.90
2019-03-10T06:45:39.173Z,8.47
2019-03-10T06:48:08.332Z,6.33
2019-03-10T06:50:37.522Z,5.20
2019-03-10T06:53:07.752Z,4.47
2019-03-10T06:55:36.916Z,5.13
2019-03-10T06:58:06.099Z,5.23
2019-03-10T07:00:35.256Z,4.40
2019-03-10T07:03:04.445Z,2.73
2019-03-10T07:05:33.619Z,2.57
2019-03-10T07:08:03.059Z,4.43
2019-03-10T07:10:32.228Z,5.53
2019-03-10T07:13:01.389Z,3.47
2019-03-10T07:15:30.568Z,4.00
2019-03-10T07:17:59.731Z,4.27
2019-03-10T07:20:28.917Z,3.33
2019-03-10T07:22:58.093Z,3.90
2019-03-10T07:25:27.256Z,4.40
2019-03-10T07:28:08.397Z,5.10
2019-03-10T07:30:54.476Z,3.80
2019-03-10T07:33:25.280Z,4.20
2019-03-10T07:35:56.099Z,4.60
2019-03-10T07:38:33.033Z,4.20
2019-03-10T07:41:09.688Z,3.77
2019-03-10T07:43:40.497Z,3.20
2019-03-10T07:46:11.628Z,3.27
2019-03-10T07:48:45.149Z,3.80
2019-03-10T07:51:21.921Z,3.00
2019-03-10T07:53:52.745Z,2.60
2019-03-10T07:56:29.736Z,3.20
2019-03-10T07:59:00.566Z,2.80
2019-03-10T08:01:34.323Z,3.30
2019-03-10T08:04:17.153Z,2.97
2019-03-10T08:06:47.960Z,3.20
2019-03-10T08:09:18.779Z,3.30
2019-03-10T08:11:49.581Z,3.00
2019-03-10T08:14:26.520Z,2.60
2019-03-10T08:17:03.493Z,2.60
2019-03-10T08:19:40.264Z,3.00
2019-03-10T08:22:26.350Z,3.10
2019-03-10T08:24:57.487Z,2.70
2019-03-10T08:27:44.504Z,3.30
2019-03-10T08:30:15.336Z,2.93
2019-03-10T08:32:55.052Z,2.97
2019-03-10T08:35:37.943Z,3.27
2019-03-10T08:38:14.693Z,4.60
2019-03-10T08:40:54.118Z,4.13
2019-03-10T08:43:33.857Z,3.53
2019-03-10T08:46:11.156Z,3.60
2019-03-10T08:48:41.999Z,4.50
2019-03-10T08:51:15.509Z,4.03
2019-03-10T08:53:46.329Z,3.77
2019-03-10T08:56:29.217Z,3.87
2019-03-10T08:59:00.037Z,3.20
2019-03-10T09:01:37.206Z,4.60
2019-03-10T09:04:08.056Z,4.10
2019-03-10T09:06:38.888Z,3.30
2019-03-10T09:09:18.712Z,3.50
2019-03-10T09:11:49.845Z,2.97
2019-03-10T09:14:32.832Z,3.30
2019-03-10T09:17:03.652Z,3.40
2019-03-10T09:19:50.677Z,3.07
2019-03-10T09:22:27.815Z,4.77
2019-03-10T09:25:13.629Z,3.43
2019-03-10T09:27:56.564Z,3.20
2019-03-10T09:30:33.340Z,3.00
2019-03-10T09:33:09.943Z,2.53
2019-03-10T09:35:57.304Z,2.53
2019-03-10T09:38:28.113Z,2.40
2019-03-10T09:41:01.605Z,2.90
2019-03-10T09:43:44.455Z,3.83
2019-03-10T09:46:15.280Z,3.23
2019-03-10T09:49:04.035Z,3.53
2019-03-10T09:51:34.853Z,3.10
2019-03-10T09:54:24.141Z,3.30
2019-03-10T09:56:54.960Z,2.63
2019-03-10T09:59:26.135Z,2.77
2019-03-10T10:02:06.061Z,2.10
2019-03-10T10:04:39.768Z,1.57
2019-03-10T10:07:10.613Z,1.80
2019-03-10T10:09:56.746Z,1.77
2019-03-10T10:12:27.564Z,1.37
2019-03-10T10:15:01.060Z,1.20
2019-03-10T10:17:31.890Z,1.00
2019-03-10T10:20:02.696Z,1.10
2019-03-10T10:22:33.520Z,1.00
2019-03-10T10:25:07.493Z,1.23
2019-03-10T10:27:54.714Z,1.00
2019-03-10T10:30:37.757Z,1.40
2019-03-10T10:33:14.751Z,2.00
2019-03-10T10:35:54.729Z,1.33
2019-03-10T10:38:28.369Z,0.80
2019-03-10T10:41:15.562Z,1.00
2019-03-10T10:43:58.672Z,0.63
2019-03-10T10:46:38.392Z,1.53
2019-03-10T10:49:09.520Z,0.80
2019-03-10T10:51:56.815Z,3.60
2019-03-10T10:54:45.699Z,0.80
2019-03-10T10:57:19.202Z,1.00
2019-03-10T11:00:06.249Z,0.90
2019-03-10T11:02:38.133Z,0.87
2019-03-10T11:05:13.026Z,1.97
2019-03-10T11:08:00.351Z,1.10
2019-03-10T11:10:31.168Z,1.20
2019-03-10T11:13:02.040Z,1.10
2019-03-10T11:15:33.476Z,2.20
2019-03-10T11:18:09.388Z,1.43
2019-03-10T11:20:36.800Z,3.13
2019-03-10T11:23:17.037Z,2.10
2019-03-10T11:25:48.184Z,1.60
2019-03-10T11:28:21.711Z,1.67
2019-03-10T11:30:52.537Z,1.23
2019-03-10T11:33:32.340Z,1.80
2019-03-10T11:36:18.169Z,1.70
2019-03-10T11:39:05.273Z,1.70
2019-03-10T11:41:42.211Z,1.60
2019-03-10T11:44:29.409Z,4.30
2019-03-10T11:47:03.164Z,1.00
2019-03-10T11:49:39.681Z,1.53
2019-03-10T11:52:13.185Z,2.50
2019-03-10T11:54:43.991Z,0.90
2019-03-10T11:57:20.834Z,1.53
2019-03-10T11:59:51.641Z,1.60
2019-03-10T12:02:25.202Z,3.30
2019-03-10T12:05:07.785Z,1.70
2019-03-10T12:07:41.485Z,1.40
2019-03-10T12:10:10.648Z,1.17
2019-03-10T12:12:39.841Z,2.90
2019-03-10T12:15:12.350Z,3.20
2019-03-10T12:17:41.530Z,2.47
2019-03-10T12:20:13.216Z,3.13
2019-03-10T12:22:42.484Z,2.00
2019-03-10T12:25:13.652Z,1.53
2019-03-10T12:27:42.829Z,4.10
2019-03-10T12:30:14.772Z,2.10
2019-03-10T12:32:43.932Z,2.70
2019-03-10T12:35:13.389Z,2.07
2019-03-10T12:37:42.591Z,2.77
2019-03-10T12:40:12.700Z,1.80
2019-03-10T12:42:41.887Z,3.17
2019-03-10T12:45:11.691Z,1.80
2019-03-10T12:47:40.884Z,1.27
2019-03-10T12:50:14.666Z,1.73
2019-03-10T12:52:44.113Z,3.50
2019-03-10T12:55:13.295Z,3.67
2019-03-10T12:57:42.469Z,2.63
2019-03-10T13:00:16.500Z,1.53
2019-03-10T13:02:45.688Z,3.13
2019-03-10T13:05:15.021Z,4.07
2019-03-10T13:07:44.205Z,4.80
2019-03-10T13:10:13.377Z,3.63
2019-03-10T13:12:42.565Z,2.43
2019-03-10T13:15:12.489Z,2.87
2019-03-10T13:17:41.653Z,2.40
2019-03-10T13:20:11.884Z,3.60
2019-03-10T13:22:41.071Z,1.97
2019-03-10T13:25:12.115Z,2.60
2019-03-10T13:27:41.277Z,2.77
2019-03-10T13:30:15.254Z,4.27
2019-03-10T13:32:44.910Z,2.57
2019-03-10T13:35:14.471Z,2.70
2019-03-10T13:37:43.697Z,7.77
2019-03-10T13:40:14.641Z,3.33
2019-03-10T13:42:43.818Z,4.83
2019-03-10T13:45:15.815Z,5.70
2019-03-10T13:47:44.978Z,6.00
2019-03-10T13:50:15.388Z,2.93
2019-03-10T13:52:44.572Z,4.53
2019-03-10T13:55:14.993Z,5.83
2019-03-10T13:57:44.172Z,7.63
2019-03-10T14:00:19.064Z,5.50
2019-03-10T14:02:48.261Z,4.50
2019-03-10T14:05:17.429Z,6.67
2019-03-10T14:07:46.607Z,5.67
2019-03-10T14:10:15.849Z,3.60
2019-03-10T14:12:45.028Z,5.63
2019-03-10T14:15:15.664Z,3.70
2019-03-10T14:17:44.833Z,2.93
2019-03-10T14:20:15.185Z,4.53
2019-03-10T14:22:44.353Z,5.47
2019-03-10T14:25:14.696Z,4.60
2019-03-10T14:27:45.256Z,3.60
2019-03-10T14:30:18.321Z,5.10
2019-03-10T14:32:47.574Z,3.33
2019-03-10T14:35:16.808Z,5.00
2019-03-10T14:37:45.989Z,6.30
2019-03-10T14:40:17.001Z,5.50
2019-03-10T14:42:46.472Z,5.60
2019-03-10T14:45:19.293Z,4.23
2019-03-10T14:47:49.014Z,7.60
2019-03-10T14:50:19.217Z,2.70
2019-03-10T14:52:48.386Z,3.23
2019-03-10T14:55:21.971Z,5.53
2019-03-10T14:57:51.200Z,1.90
2019-03-10T15:00:23.556Z,4.43
2019-03-10T15:02:52.738Z,2.10
2019-03-10T15:05:21.904Z,3.83
2019-03-10T15:07:51.103Z,4.23
2019-03-10T15:10:20.843Z,3.53
2019-03-10T15:12:50.009Z,3.40
2019-03-10T15:15:22.774Z,3.67
2019-03-10T15:17:50.796Z,3.87
2019-03-10T15:20:21.655Z,4.13
2019-03-10T15:22:51.096Z,4.60
2019-03-10T15:25:21.299Z,2.60
2019-03-10T15:27:50.608Z,4.27
2019-03-10T15:30:25.121Z,7.37
2019-03-10T15:32:54.837Z,8.13
2019-03-10T15:35:23.996Z,1.50
2019-03-10T15:37:53.221Z,4.43
2019-03-10T15:40:22.428Z,3.40
2019-03-10T15:42:52.686Z,4.90
2019-03-10T15:45:21.865Z,5.37
2019-03-10T15:47:51.045Z,3.20
2019-03-10T15:50:28.647Z,2.30
2019-03-10T15:52:57.914Z,2.70
2019-03-10T15:55:27.084Z,2.27
2019-03-10T15:57:56.273Z,4.07
2019-03-10T16:00:26.700Z,2.70
2019-03-10T16:02:55.953Z,3.53
2019-03-10T16:05:25.117Z,2.73
2019-03-10T16:07:54.306Z,2.40
2019-03-10T16:10:23.482Z,1.87
2019-03-10T16:12:53.607Z,3.23
2019-03-10T16:15:27.577Z,2.90
2019-03-10T16:17:56.775Z,2.20
2019-03-10T16:20:25.929Z,6.30
2019-03-10T16:22:55.607Z,4.53
2019-03-10T16:25:25.936Z,5.40
2019-03-10T16:27:55.123Z,2.30
2019-03-10T16:30:25.777Z,2.30
2019-03-10T16:32:55.128Z,2.20
2019-03-10T16:35:24.300Z,2.47
2019-03-10T16:37:53.477Z,7.10
2019-03-10T16:40:22.724Z,3.67
2019-03-10T16:42:51.906Z,3.27
2019-03-10T16:45:22.884Z,3.97
2019-03-10T16:47:52.146Z,1.37
2019-03-10T16:50:22.568Z,3.07
2019-03-10T16:52:51.762Z,2.43
2019-03-10T16:55:21.011Z,1.73
2019-03-10T16:57:50.204Z,2.10
2019-03-10T17:00:22.685Z,2.30
2019-03-10T17:02:52.343Z,2.60
2019-03-10T17:05:23.543Z,1.33
2019-03-10T17:07:52.893Z,1.50
2019-03-10T17:10:26.187Z,1.73
2019-03-10T17:12:55.454Z,1.07
2019-03-10T17:15:25.787Z,1.30
2019-03-10T17:17:54.974Z,4.43
2019-03-10T17:20:24.159Z,3.07
2019-03-10T17:22:53.358Z,1.70
2019-03-10T17:25:22.527Z,4.60
2019-03-10T17:27:51.693Z,1.77
2019-03-10T17:30:24.610Z,4.70
2019-03-10T17:32:54.083Z,4.07
2019-03-10T17:35:23.270Z,3.10
2019-03-10T17:37:52.438Z,1.53
2019-03-10T17:40:22.864Z,2.33
2019-03-10T17:42:53.454Z,1.10
2019-03-10T17:45:27.104Z,1.30
2019-03-10T17:47:56.277Z,1.70
2019-03-10T17:50:25.445Z,5.60
2019-03-10T17:52:54.631Z,3.03
2019-03-10T17:55:25.287Z,4.53
2019-03-10T17:57:54.457Z,1.20
2019-03-10T18:00:28.194Z,1.53
2019-03-10T18:02:57.381Z,1.20
2019-03-10T18:05:26.542Z,2.10
2019-03-10T18:07:55.717Z,0.60
2019-03-10T18:10:24.901Z,1.43
2019-03-10T18:12:54.153Z,0.83
2019-03-10T18:15:23.404Z,0.87
2019-03-10T18:17:52.585Z,0.60
2019-03-10T18:20:24.758Z,1.90
2019-03-10T18:22:53.940Z,0.60
2019-03-10T18:25:23.102Z,0.93
2019-03-10T18:27:52.276Z,0.93
2019-03-10T18:30:22.584Z,1.23
2019-03-10T18:32:51.779Z,1.63
2019-03-10T18:35:20.985Z,1.13
2019-03-10T18:37:50.474Z,3.07
2019-03-10T18:40:23.436Z,1.17
2019-03-10T18:42:52.616Z,1.43
2019-03-10T18:45:21.865Z,1.07
2019-03-10T18:47:51.033Z,0.70
2019-03-10T18:50:25.329Z,0.63
2019-03-10T18:52:54.501Z,1.00
2019-03-10T18:55:23.670Z,0.70
2019-03-10T18:57:53.187Z,0.90
2019-03-10T19:00:24.657Z,1.00
2019-03-10T19:02:53.903Z,0.57
2019-03-10T19:05:23.143Z,0.90
2019-03-10T19:07:52.317Z,0.60
2019-03-10T19:10:21.838Z,1.20
2019-03-10T19:12:51.003Z,0.90
2019-03-10T19:15:27.825Z,2.50
2019-03-10T19:17:56.992Z,1.13
2019-03-10T19:20:26.172Z,0.80
2019-03-10T19:22:55.619Z,0.93
2019-03-10T19:25:24.786Z,1.00
2019-03-10T19:27:53.960Z,1.27
2019-03-10T19:30:23.989Z,0.90
2019-03-10T19:32:53.168Z,0.80
2019-03-10T19:35:22.348Z,0.70
2019-03-10T19:37:51.525Z,1.50
2019-03-10T19:40:22.917Z,1.17
2019-03-10T19:42:52.088Z,0.73
2019-03-10T19:45:22.526Z,2.00
2019-03-10T19:47:51.715Z,0.87
2019-03-10T19:50:27.616Z,0.93
2019-03-10T19:52:57.309Z,1.50
2019-03-10T19:55:26.545Z,2.10
2019-03-10T19:57:55.722Z,0.57
2019-03-10T20:00:24.896Z,1.03
2019-03-10T20:02:54.065Z,0.80
2019-03-10T20:05:23.261Z,0.90
2019-03-10T20:07:53.312Z,1.17
2019-03-10T20:10:24.213Z,0.53
2019-03-10T20:12:53.381Z,1.30
2019-03-10T20:15:23.600Z,0.80
2019-03-10T20:17:52.770Z,0.40
2019-03-10T20:20:25.578Z,1.17
2019-03-10T20:22:54.761Z,0.53
2019-03-10T20:25:24.913Z,1.00
2019-03-10T20:27:54.077Z,1.30
2019-03-10T20:30:25.175Z,0.80
2019-03-10T20:32:54.348Z,0.67
2019-03-10T20:35:24.505Z,1.40
2019-03-10T20:37:53.660Z,1.03
2019-03-10T20:40:25.371Z,0.60
2019-03-10T20:42:54.883Z,1.07
2019-03-10T20:45:24.757Z,0.50
2019-03-10T20:47:56.267Z,0.70
2019-03-10T20:50:25.354Z,0.90
2019-03-10T20:52:54.963Z,1.47
2019-03-10T20:55:24.159Z,0.70
2019-03-10T20:57:53.393Z,0.50
2019-03-10T21:00:24.121Z,0.53
2019-03-10T21:02:53.472Z,0.70
2019-03-10T21:05:23.715Z,0.70
2019-03-10T21:07:52.918Z,0.70
2019-03-10T21:10:28.127Z,3.03
2019-03-10T21:12:57.312Z,1.03
2019-03-10T21:15:26.882Z,0.70
2019-03-10T21:17:56.469Z,1.60
2019-03-10T21:20:26.390Z,0.83
2019-03-10T21:22:55.568Z,5.07
2019-03-10T21:25:29.944Z,1.23
2019-03-10T21:27:59.144Z,2.63
2019-03-10T21:30:33.453Z,1.47
2019-03-10T21:33:02.619Z,2.10
2019-03-10T21:35:33.371Z,1.70
2019-03-10T21:38:02.986Z,1.07
2019-03-10T21:40:33.494Z,3.27
2019-03-10T21:43:02.671Z,1.70
2019-03-10T21:45:31.863Z,1.57
2019-03-10T21:48:01.030Z,2.77
2019-03-10T21:50:30.293Z,3.17
2019-03-10T21:52:59.700Z,2.90
2019-03-10T21:55:28.880Z,1.63
2019-03-10T21:57:58.236Z,2.03
2019-03-10T22:00:27.457Z,1.73
2019-03-10T22:02:56.648Z,2.30
2019-03-10T22:05:25.804Z,2.90
2019-03-10T22:07:54.981Z,3.13
2019-03-10T22:10:27.622Z,4.03
2019-03-10T22:12:55.008Z,1.57
2019-03-10T22:15:24.185Z,4.83
2019-03-10T22:17:53.366Z,4.90
2019-03-10T22:20:22.544Z,4.57
2019-03-10T22:22:51.753Z,3.77
2019-03-10T22:25:20.916Z,3.90
2019-03-10T22:27:50.093Z,5.10
2019-03-10T22:30:20.896Z,4.57
2019-03-10T22:32:50.092Z,6.10
2019-03-10T22:35:19.253Z,5.17
2019-03-10T22:37:48.428Z,5.07
2019-03-10T22:40:17.980Z,3.97
2019-03-10T22:42:47.146Z,3.50
2019-03-10T22:45:19.861Z,8.83
2019-03-10T22:47:49.026Z,4.77
2019-03-10T22:50:18.563Z,4.93
2019-03-10T22:52:48.624Z,4.70
2019-03-10T22:55:17.805Z,5.43
2019-03-10T22:57:46.988Z,4.13
2019-03-10T23:00:30.932Z,6.53
2019-03-10T23:03:01.730Z,4.83
2019-03-10T23:05:30.913Z,5.27
2019-03-10T23:08:00.089Z,4.00
2019-03-10T23:10:29.252Z,4.07
2019-03-10T23:12:58.432Z,5.03
2019-03-10T23:15:27.610Z,7.50
2019-03-10T23:17:56.785Z,5.60
2019-03-10T23:20:25.950Z,8.97
2019-03-10T23:22:55.134Z,8.37
2019-03-10T23:25:24.292Z,4.10
2019-03-10T23:27:53.474Z,6.97
2019-03-10T23:30:22.629Z,4.90
2019-03-10T23:32:51.809Z,7.00
2019-03-10T23:35:20.965Z,7.57
2019-03-10T23:37:50.152Z,5.97
2019-03-10T23:40:22.346Z,6.10
2019-03-10T23:42:51.511Z,6.57
2019-03-10T23:45:20.759Z,4.77
2019-03-10T23:47:49.917Z,6.30
2019-03-10T23:50:19.339Z,9.40
2019-03-10T23:52:48.574Z,5.70
2019-03-10T23:55:18.896Z,6.63
2019-03-10T23:57:48.125Z,4.90
